sensor_id;sensor_type;location;lat;lon;timestamp;temperature;humidity
65692;DHT22;52411;52.716;6.696;2024-01-11T00:01:10;-4.90;99.90
65692;DHT22;52411;52.716;6.696;2024-01-11T00:03:36;-4.90;99.90
65692;DHT22;52411;52.716;6.696;2024-01-11T00:06:01;-4.90;99.90
65692;DHT22;52411;52.716;6.696;2024-01-11T00:08:27;-5.00;99.90
65692;DHT22;52411;52.716;6.696;2024-01-11T00:10:52;-5.00;99.90
65692;DHT22;52411;52.716;6.696;2024-01-11T00:13:18;-5.10;99.90
65692;DHT22;52411;52.716;6.696;2024-01-11T00:15:44;-5.10;99.90
65692;DHT22;52411;52.716;6.696;2024-01-11T00:18:09;-5.10;99.90
65692;DHT22;52411;52.716;6.696;2024-01-11T00:20:35;-5.10;99.90
65692;DHT22;52411;52.716;6.696;2024-01-11T00:23:00;-5.10;99.90
65692;DHT22;52411;52.716;6.696;2024-01-11T00:25:26;-5.20;99.90
65692;DHT22;52411;52.716;6.696;2024-01-11T00:27:51;-5.20;99.90
65692;DHT22;52411;52.716;6.696;2024-01-11T00:30:17;-5.20;99.90
65692;DHT22;52411;52.716;6.696;2024-01-11T00:32:42;-5.20;99.90
65692;DHT22;52411;52.716;6.696;2024-01-11T00:35:08;-5.20;99.90
65692;DHT22;52411;52.716;6.696;2024-01-11T00:37:33;-5.30;99.90
65692;DHT22;52411;52.716;6.696;2024-01-11T00:39:59;-5.30;99.90
65692;DHT22;52411;52.716;6.696;2024-01-11T00:42:25;-5.30;99.90
65692;DHT22;52411;52.716;6.696;2024-01-11T00:44:50;-5.30;99.90
65692;DHT22;52411;52.716;6.696;2024-01-11T00:47:16;-5.30;99.90
65692;DHT22;52411;52.716;6.696;2024-01-11T00:49:42;-5.40;99.90
65692;DHT22;52411;52.716;6.696;2024-01-11T00:52:08;-5.30;99.90
65692;DHT22;52411;52.716;6.696;2024-01-11T00:54:35;-5.30;99.90
65692;DHT22;52411;52.716;6.696;2024-01-11T00:57:01;-5.30;99.90
65692;DHT22;52411;52.716;6.696;2024-01-11T00:59:27;-5.30;99.90
65692;DHT22;52411;52.716;6.696;2024-01-11T01:01:52;-5.30;99.90
65692;DHT22;52411;52.716;6.696;2024-01-11T01:04:18;-5.20;99.90
65692;DHT22;52411;52.716;6.696;2024-01-11T01:06:43;-5.20;99.90
65692;DHT22;52411;52.716;6.696;2024-01-11T01:09:09;-5.20;99.90
65692;DHT22;52411;52.716;6.696;2024-01-11T01:11:35;-5.20;99.90
65692;DHT22;52411;52.716;6.696;2024-01-11T01:14:00;-5.20;99.90
65692;DHT22;52411;52.716;6.696;2024-01-11T01:16:26;-5.20;99.90
65692;DHT22;52411;52.716;6.696;2024-01-11T01:18:51;-5.20;99.90
65692;DHT22;52411;52.716;6.696;2024-01-11T01:21:18;-5.30;99.90
65692;DHT22;52411;52.716;6.696;2024-01-11T01:23:43;-5.20;99.90
65692;DHT22;52411;52.716;6.696;2024-01-11T01:26:09;-5.30;99.90
65692;DHT22;52411;52.716;6.696;2024-01-11T01:28:34;-5.30;99.90
65692;DHT22;52411;52.716;6.696;2024-01-11T01:31:00;-5.30;99.90
65692;DHT22;52411;52.716;6.696;2024-01-11T01:33:25;-5.30;99.90
65692;DHT22;52411;52.716;6.696;2024-01-11T01:35:51;-5.30;99.90
65692;DHT22;52411;52.716;6.696;2024-01-11T01:38:16;-5.30;99.90
65692;DHT22;52411;52.716;6.696;2024-01-11T01:40:43;-5.20;99.90
65692;DHT22;52411;52.716;6.696;2024-01-11T01:43:08;-5.20;99.90
65692;DHT22;52411;52.716;6.696;2024-01-11T01:45:34;-5.10;99.90
65692;DHT22;52411;52.716;6.696;2024-01-11T01:48:00;-5.10;99.90
65692;DHT22;52411;52.716;6.696;2024-01-11T01:50:26;-5.10;99.90
65692;DHT22;52411;52.716;6.696;2024-01-11T01:52:52;-5.20;99.90
65692;DHT22;52411;52.716;6.696;2024-01-11T01:55:19;-5.20;99.90
65692;DHT22;52411;52.716;6.696;2024-01-11T01:57:45;-5.20;99.90
65692;DHT22;52411;52.716;6.696;2024-01-11T02:00:12;-5.30;99.90
65692;DHT22;52411;52.716;6.696;2024-01-11T02:02:39;-5.30;99.90
65692;DHT22;52411;52.716;6.696;2024-01-11T02:05:06;-5.30;99.90
65692;DHT22;52411;52.716;6.696;2024-01-11T02:07:32;-5.30;99.90
65692;DHT22;52411;52.716;6.696;2024-01-11T02:09:58;-5.30;99.90
65692;DHT22;52411;52.716;6.696;2024-01-11T02:12:24;-5.30;99.90
65692;DHT22;52411;52.716;6.696;2024-01-11T02:14:51;-5.40;99.90
65692;DHT22;52411;52.716;6.696;2024-01-11T02:17:17;-5.40;99.90
65692;DHT22;52411;52.716;6.696;2024-01-11T02:19:42;-5.40;99.90
65692;DHT22;52411;52.716;6.696;2024-01-11T02:22:46;-5.40;99.90
65692;DHT22;52411;52.716;6.696;2024-01-11T02:25:13;-5.40;99.90
65692;DHT22;52411;52.716;6.696;2024-01-11T02:27:46;-5.40;99.90
65692;DHT22;52411;52.716;6.696;2024-01-11T02:30:12;-5.50;99.90
65692;DHT22;52411;52.716;6.696;2024-01-11T02:32:38;-5.50;99.90
65692;DHT22;52411;52.716;6.696;2024-01-11T02:35:04;-5.50;99.90
65692;DHT22;52411;52.716;6.696;2024-01-11T02:37:30;-5.50;99.90
65692;DHT22;52411;52.716;6.696;2024-01-11T02:39:56;-5.60;99.90
65692;DHT22;52411;52.716;6.696;2024-01-11T02:42:22;-5.60;99.90
65692;DHT22;52411;52.716;6.696;2024-01-11T02:44:47;-5.60;99.90
65692;DHT22;52411;52.716;6.696;2024-01-11T02:47:13;-5.60;99.90
65692;DHT22;52411;52.716;6.696;2024-01-11T02:49:38;-5.60;99.90
65692;DHT22;52411;52.716;6.696;2024-01-11T02:52:04;-5.70;99.90
65692;DHT22;52411;52.716;6.696;2024-01-11T02:54:30;-5.70;99.90
65692;DHT22;52411;52.716;6.696;2024-01-11T02:56:56;-5.80;99.90
65692;DHT22;52411;52.716;6.696;2024-01-11T02:59:23;-5.80;99.90
65692;DHT22;52411;52.716;6.696;2024-01-11T03:01:49;-5.80;99.90
65692;DHT22;52411;52.716;6.696;2024-01-11T03:04:15;-5.80;99.90
65692;DHT22;52411;52.716;6.696;2024-01-11T03:06:41;-5.80;99.90
65692;DHT22;52411;52.716;6.696;2024-01-11T03:09:06;-5.90;99.90
65692;DHT22;52411;52.716;6.696;2024-01-11T03:11:32;-5.90;99.90
65692;DHT22;52411;52.716;6.696;2024-01-11T03:13:57;-5.90;99.90
65692;DHT22;52411;52.716;6.696;2024-01-11T03:16:23;-5.80;99.90
65692;DHT22;52411;52.716;6.696;2024-01-11T03:18:48;-5.80;99.90
65692;DHT22;52411;52.716;6.696;2024-01-11T03:21:14;-5.80;99.90
65692;DHT22;52411;52.716;6.696;2024-01-11T03:23:39;-5.80;99.90
65692;DHT22;52411;52.716;6.696;2024-01-11T03:26:15;-5.80;99.90
65692;DHT22;52411;52.716;6.696;2024-01-11T03:28:41;-5.70;99.90
65692;DHT22;52411;52.716;6.696;2024-01-11T03:31:08;-5.70;99.90
65692;DHT22;52411;52.716;6.696;2024-01-11T03:33:34;-5.60;99.90
65692;DHT22;52411;52.716;6.696;2024-01-11T03:36:05;-5.60;99.90
65692;DHT22;52411;52.716;6.696;2024-01-11T03:38:31;-5.60;99.90
65692;DHT22;52411;52.716;6.696;2024-01-11T03:40:56;-5.50;99.90
65692;DHT22;52411;52.716;6.696;2024-01-11T03:43:22;-5.50;99.90
65692;DHT22;52411;52.716;6.696;2024-01-11T03:45:47;-5.50;99.90
65692;DHT22;52411;52.716;6.696;2024-01-11T03:48:13;-5.50;99.90
65692;DHT22;52411;52.716;6.696;2024-01-11T03:50:39;-5.50;99.90
65692;DHT22;52411;52.716;6.696;2024-01-11T03:53:04;-5.50;99.90
65692;DHT22;52411;52.716;6.696;2024-01-11T03:55:30;-5.60;99.90
65692;DHT22;52411;52.716;6.696;2024-01-11T03:57:55;-5.60;99.90
65692;DHT22;52411;52.716;6.696;2024-01-11T04:00:21;-5.60;99.90
65692;DHT22;52411;52.716;6.696;2024-01-11T04:02:46;-5.60;99.90
65692;DHT22;52411;52.716;6.696;2024-01-11T04:05:12;-5.70;99.90
65692;DHT22;52411;52.716;6.696;2024-01-11T04:07:37;-5.70;99.90
65692;DHT22;52411;52.716;6.696;2024-01-11T04:10:03;-5.70;99.90
65692;DHT22;52411;52.716;6.696;2024-01-11T04:12:29;-5.80;99.90
65692;DHT22;52411;52.716;6.696;2024-01-11T04:14:55;-5.80;99.90
65692;DHT22;52411;52.716;6.696;2024-01-11T04:17:20;-5.80;99.90
65692;DHT22;52411;52.716;6.696;2024-01-11T04:19:46;-5.80;99.90
65692;DHT22;52411;52.716;6.696;2024-01-11T04:22:11;-5.80;99.90
65692;DHT22;52411;52.716;6.696;2024-01-11T04:24:37;-5.80;99.90
65692;DHT22;52411;52.716;6.696;2024-01-11T04:27:02;-5.90;99.90
65692;DHT22;52411;52.716;6.696;2024-01-11T04:29:28;-5.80;99.90
65692;DHT22;52411;52.716;6.696;2024-01-11T04:31:53;-5.80;99.90
65692;DHT22;52411;52.716;6.696;2024-01-11T04:34:19;-5.80;99.90
65692;DHT22;52411;52.716;6.696;2024-01-11T04:36:45;-5.80;99.90
65692;DHT22;52411;52.716;6.696;2024-01-11T04:39:10;-5.80;99.90
65692;DHT22;52411;52.716;6.696;2024-01-11T04:41:37;-5.80;99.90
65692;DHT22;52411;52.716;6.696;2024-01-11T04:44:03;-5.80;99.90
65692;DHT22;52411;52.716;6.696;2024-01-11T04:46:29;-5.90;99.90
65692;DHT22;52411;52.716;6.696;2024-01-11T04:48:55;-5.80;99.90
65692;DHT22;52411;52.716;6.696;2024-01-11T04:51:20;-5.90;99.90
65692;DHT22;52411;52.716;6.696;2024-01-11T04:53:46;-5.90;99.90
65692;DHT22;52411;52.716;6.696;2024-01-11T04:56:14;-5.90;99.90
65692;DHT22;52411;52.716;6.696;2024-01-11T04:58:42;-5.90;99.90
65692;DHT22;52411;52.716;6.696;2024-01-11T05:01:12;-5.90;99.90
65692;DHT22;52411;52.716;6.696;2024-01-11T05:03:38;-6.00;99.90
65692;DHT22;52411;52.716;6.696;2024-01-11T05:06:04;-6.00;99.90
65692;DHT22;52411;52.716;6.696;2024-01-11T05:08:29;-6.00;99.90
65692;DHT22;52411;52.716;6.696;2024-01-11T05:10:55;-6.00;99.90
65692;DHT22;52411;52.716;6.696;2024-01-11T05:13:20;-6.00;99.90
65692;DHT22;52411;52.716;6.696;2024-01-11T05:15:46;-6.00;99.90
65692;DHT22;52411;52.716;6.696;2024-01-11T05:18:12;-6.00;99.90
65692;DHT22;52411;52.716;6.696;2024-01-11T05:20:38;-6.00;99.90
65692;DHT22;52411;52.716;6.696;2024-01-11T05:23:04;-6.00;99.90
65692;DHT22;52411;52.716;6.696;2024-01-11T05:25:30;-5.90;99.90
65692;DHT22;52411;52.716;6.696;2024-01-11T05:28:04;-5.80;99.90
65692;DHT22;52411;52.716;6.696;2024-01-11T05:30:30;-5.80;99.90
65692;DHT22;52411;52.716;6.696;2024-01-11T05:32:56;-5.70;99.90
65692;DHT22;52411;52.716;6.696;2024-01-11T05:35:22;-5.70;99.90
65692;DHT22;52411;52.716;6.696;2024-01-11T05:37:53;-5.60;99.90
65692;DHT22;52411;52.716;6.696;2024-01-11T05:40:20;-5.60;99.90
65692;DHT22;52411;52.716;6.696;2024-01-11T05:42:45;-5.60;99.90
65692;DHT22;52411;52.716;6.696;2024-01-11T05:45:11;-5.50;99.90
65692;DHT22;52411;52.716;6.696;2024-01-11T05:47:36;-5.40;99.90
65692;DHT22;52411;52.716;6.696;2024-01-11T05:50:02;-5.40;99.90
65692;DHT22;52411;52.716;6.696;2024-01-11T05:52:28;-5.40;99.90
65692;DHT22;52411;52.716;6.696;2024-01-11T05:54:53;-5.40;99.90
65692;DHT22;52411;52.716;6.696;2024-01-11T05:57:19;-5.50;99.90
65692;DHT22;52411;52.716;6.696;2024-01-11T05:59:45;-5.40;99.90
65692;DHT22;52411;52.716;6.696;2024-01-11T06:02:11;-5.40;99.90
65692;DHT22;52411;52.716;6.696;2024-01-11T06:04:37;-5.30;99.90
65692;DHT22;52411;52.716;6.696;2024-01-11T06:07:02;-5.20;99.90
65692;DHT22;52411;52.716;6.696;2024-01-11T06:09:28;-5.10;99.90
65692;DHT22;52411;52.716;6.696;2024-01-11T06:11:53;-5.00;99.90
65692;DHT22;52411;52.716;6.696;2024-01-11T06:14:19;-4.90;99.90
65692;DHT22;52411;52.716;6.696;2024-01-11T06:16:45;-4.70;99.90
65692;DHT22;52411;52.716;6.696;2024-01-11T06:19:10;-4.70;99.90
65692;DHT22;52411;52.716;6.696;2024-01-11T06:21:36;-4.40;99.90
65692;DHT22;52411;52.716;6.696;2024-01-11T06:24:02;-4.40;99.90
65692;DHT22;52411;52.716;6.696;2024-01-11T06:26:29;-4.30;99.90
65692;DHT22;52411;52.716;6.696;2024-01-11T06:28:54;-4.20;99.90
65692;DHT22;52411;52.716;6.696;2024-01-11T06:31:20;-4.20;99.90
65692;DHT22;52411;52.716;6.696;2024-01-11T06:33:45;-4.10;99.90
65692;DHT22;52411;52.716;6.696;2024-01-11T06:36:11;-4.10;99.90
65692;DHT22;52411;52.716;6.696;2024-01-11T06:38:36;-4.00;99.90
65692;DHT22;52411;52.716;6.696;2024-01-11T06:41:02;-4.00;99.90
65692;DHT22;52411;52.716;6.696;2024-01-11T06:43:28;-4.00;99.90
65692;DHT22;52411;52.716;6.696;2024-01-11T06:45:53;-3.90;99.90
65692;DHT22;52411;52.716;6.696;2024-01-11T06:48:19;-3.90;99.90
65692;DHT22;52411;52.716;6.696;2024-01-11T06:50:44;-3.80;99.90
65692;DHT22;52411;52.716;6.696;2024-01-11T06:53:10;-3.80;99.90
65692;DHT22;52411;52.716;6.696;2024-01-11T06:55:36;-3.80;99.90
65692;DHT22;52411;52.716;6.696;2024-01-11T06:58:01;-3.80;99.90
65692;DHT22;52411;52.716;6.696;2024-01-11T07:00:27;-3.70;99.90
65692;DHT22;52411;52.716;6.696;2024-01-11T07:02:53;-3.70;99.90
65692;DHT22;52411;52.716;6.696;2024-01-11T07:05:19;-3.70;99.90
65692;DHT22;52411;52.716;6.696;2024-01-11T07:07:45;-3.70;99.90
65692;DHT22;52411;52.716;6.696;2024-01-11T07:10:10;-3.60;99.90
65692;DHT22;52411;52.716;6.696;2024-01-11T07:12:36;-3.60;99.90
65692;DHT22;52411;52.716;6.696;2024-01-11T07:15:03;-3.60;99.90
65692;DHT22;52411;52.716;6.696;2024-01-11T07:17:30;-3.50;99.90
65692;DHT22;52411;52.716;6.696;2024-01-11T07:19:56;-3.50;99.90
65692;DHT22;52411;52.716;6.696;2024-01-11T07:22:21;-3.40;99.90
65692;DHT22;52411;52.716;6.696;2024-01-11T07:24:47;-3.40;99.90
65692;DHT22;52411;52.716;6.696;2024-01-11T07:27:12;-3.40;99.90
65692;DHT22;52411;52.716;6.696;2024-01-11T07:29:38;-3.40;99.90
65692;DHT22;52411;52.716;6.696;2024-01-11T07:32:04;-3.30;99.90
65692;DHT22;52411;52.716;6.696;2024-01-11T07:34:30;-3.30;99.90
65692;DHT22;52411;52.716;6.696;2024-01-11T07:36:55;-3.20;99.90
65692;DHT22;52411;52.716;6.696;2024-01-11T07:39:22;-3.20;99.90
65692;DHT22;52411;52.716;6.696;2024-01-11T07:41:48;-3.10;99.90
65692;DHT22;52411;52.716;6.696;2024-01-11T07:44:13;-3.10;99.90
65692;DHT22;52411;52.716;6.696;2024-01-11T07:46:39;-3.10;99.90
65692;DHT22;52411;52.716;6.696;2024-01-11T07:49:04;-3.10;99.90
65692;DHT22;52411;52.716;6.696;2024-01-11T07:51:30;-3.00;99.90
65692;DHT22;52411;52.716;6.696;2024-01-11T07:53:56;-3.00;99.90
65692;DHT22;52411;52.716;6.696;2024-01-11T07:56:22;-3.00;99.90
65692;DHT22;52411;52.716;6.696;2024-01-11T07:58:47;-3.00;99.90
65692;DHT22;52411;52.716;6.696;2024-01-11T08:01:14;-2.90;99.90
65692;DHT22;52411;52.716;6.696;2024-01-11T08:03:40;-2.90;99.90
65692;DHT22;52411;52.716;6.696;2024-01-11T08:06:07;-2.80;99.90
65692;DHT22;52411;52.716;6.696;2024-01-11T08:08:33;-2.80;99.90
65692;DHT22;52411;52.716;6.696;2024-01-11T08:10:59;-2.80;99.90
65692;DHT22;52411;52.716;6.696;2024-01-11T08:13:24;-2.70;99.90
65692;DHT22;52411;52.716;6.696;2024-01-11T08:15:50;-2.70;99.90
65692;DHT22;52411;52.716;6.696;2024-01-11T08:18:18;-2.60;99.90
65692;DHT22;52411;52.716;6.696;2024-01-11T08:20:44;-2.60;99.90
65692;DHT22;52411;52.716;6.696;2024-01-11T08:23:09;-2.60;99.90
65692;DHT22;52411;52.716;6.696;2024-01-11T08:25:35;-2.60;99.90
65692;DHT22;52411;52.716;6.696;2024-01-11T08:28:01;-2.50;99.90
65692;DHT22;52411;52.716;6.696;2024-01-11T08:30:28;-2.40;99.90
65692;DHT22;52411;52.716;6.696;2024-01-11T08:32:54;-2.40;99.90
65692;DHT22;52411;52.716;6.696;2024-01-11T08:35:21;-2.40;99.90
65692;DHT22;52411;52.716;6.696;2024-01-11T08:37:46;-2.30;99.90
65692;DHT22;52411;52.716;6.696;2024-01-11T08:40:12;-2.30;99.90
65692;DHT22;52411;52.716;6.696;2024-01-11T08:42:38;-2.30;99.90
65692;DHT22;52411;52.716;6.696;2024-01-11T08:45:06;-2.20;99.90
65692;DHT22;52411;52.716;6.696;2024-01-11T08:47:36;-2.20;99.90
65692;DHT22;52411;52.716;6.696;2024-01-11T08:50:04;-2.20;99.90
65692;DHT22;52411;52.716;6.696;2024-01-11T08:52:32;-2.10;99.90
65692;DHT22;52411;52.716;6.696;2024-01-11T08:54:58;-2.10;99.90
65692;DHT22;52411;52.716;6.696;2024-01-11T08:57:23;-2.10;99.90
65692;DHT22;52411;52.716;6.696;2024-01-11T08:59:49;-2.10;99.90
65692;DHT22;52411;52.716;6.696;2024-01-11T09:02:14;-2.00;99.90
65692;DHT22;52411;52.716;6.696;2024-01-11T09:04:40;-2.00;99.90
65692;DHT22;52411;52.716;6.696;2024-01-11T09:07:06;-2.00;99.90
65692;DHT22;52411;52.716;6.696;2024-01-11T09:09:31;-1.90;99.90
65692;DHT22;52411;52.716;6.696;2024-01-11T09:11:57;-1.90;99.90
65692;DHT22;52411;52.716;6.696;2024-01-11T09:14:23;-1.90;99.90
65692;DHT22;52411;52.716;6.696;2024-01-11T09:16:48;-1.80;99.90
65692;DHT22;52411;52.716;6.696;2024-01-11T09:19:16;-1.80;99.90
65692;DHT22;52411;52.716;6.696;2024-01-11T09:21:42;-1.70;99.90
65692;DHT22;52411;52.716;6.696;2024-01-11T09:24:07;-1.70;99.90
65692;DHT22;52411;52.716;6.696;2024-01-11T09:26:33;-1.60;99.90
65692;DHT22;52411;52.716;6.696;2024-01-11T09:28:59;-1.60;99.90
65692;DHT22;52411;52.716;6.696;2024-01-11T09:31:24;-1.50;99.90
65692;DHT22;52411;52.716;6.696;2024-01-11T09:33:50;-1.40;99.90
65692;DHT22;52411;52.716;6.696;2024-01-11T09:36:15;-1.40;99.90
65692;DHT22;52411;52.716;6.696;2024-01-11T09:38:41;-1.40;99.90
65692;DHT22;52411;52.716;6.696;2024-01-11T09:41:09;-1.30;99.90
65692;DHT22;52411;52.716;6.696;2024-01-11T09:43:36;-1.30;99.90
65692;DHT22;52411;52.716;6.696;2024-01-11T09:46:05;-1.20;99.90
65692;DHT22;52411;52.716;6.696;2024-01-11T09:48:34;-1.20;99.90
65692;DHT22;52411;52.716;6.696;2024-01-11T09:51:01;-1.20;99.90
65692;DHT22;52411;52.716;6.696;2024-01-11T09:53:27;-1.20;99.90
65692;DHT22;52411;52.716;6.696;2024-01-11T09:55:54;-1.10;99.90
65692;DHT22;52411;52.716;6.696;2024-01-11T09:58:21;-1.10;99.90
65692;DHT22;52411;52.716;6.696;2024-01-11T10:00:54;-1.00;99.90
65692;DHT22;52411;52.716;6.696;2024-01-11T10:03:22;-1.00;99.90
65692;DHT22;52411;52.716;6.696;2024-01-11T10:05:49;-0.90;99.90
65692;DHT22;52411;52.716;6.696;2024-01-11T10:08:18;-0.90;99.90
65692;DHT22;52411;52.716;6.696;2024-01-11T10:10:44;-0.80;99.90
65692;DHT22;52411;52.716;6.696;2024-01-11T10:13:10;-0.70;99.90
65692;DHT22;52411;52.716;6.696;2024-01-11T10:15:36;-0.70;99.90
65692;DHT22;52411;52.716;6.696;2024-01-11T10:18:02;-0.60;99.90
65692;DHT22;52411;52.716;6.696;2024-01-11T10:20:27;-0.60;99.90
65692;DHT22;52411;52.716;6.696;2024-01-11T10:22:56;-0.50;99.90
65692;DHT22;52411;52.716;6.696;2024-01-11T10:25:23;-0.50;99.90
65692;DHT22;52411;52.716;6.696;2024-01-11T10:27:48;-0.40;99.90
65692;DHT22;52411;52.716;6.696;2024-01-11T10:30:14;-0.30;99.90
65692;DHT22;52411;52.716;6.696;2024-01-11T10:32:42;-0.30;99.90
65692;DHT22;52411;52.716;6.696;2024-01-11T10:35:07;-0.20;99.90
65692;DHT22;52411;52.716;6.696;2024-01-11T10:37:33;-0.20;99.90
65692;DHT22;52411;52.716;6.696;2024-01-11T10:40:05;-0.10;99.90
65692;DHT22;52411;52.716;6.696;2024-01-11T10:42:35;-0.10;99.90
65692;DHT22;52411;52.716;6.696;2024-01-11T10:45:03;-0.10;99.90
65692;DHT22;52411;52.716;6.696;2024-01-11T10:47:34;0.00;99.90
65692;DHT22;52411;52.716;6.696;2024-01-11T10:53:25;0.00;99.90
65692;DHT22;52411;52.716;6.696;2024-01-11T10:55:55;0.10;99.90
65692;DHT22;52411;52.716;6.696;2024-01-11T10:58:22;0.10;99.90
65692;DHT22;52411;52.716;6.696;2024-01-11T11:00:50;0.10;99.90
65692;DHT22;52411;52.716;6.696;2024-01-11T11:03:17;0.20;99.90
65692;DHT22;52411;52.716;6.696;2024-01-11T11:05:43;0.20;99.90
65692;DHT22;52411;52.716;6.696;2024-01-11T11:08:10;0.20;99.90
65692;DHT22;52411;52.716;6.696;2024-01-11T11:10:39;0.30;99.90
65692;DHT22;52411;52.716;6.696;2024-01-11T11:13:06;0.30;99.90
65692;DHT22;52411;52.716;6.696;2024-01-11T11:15:32;0.30;99.90
65692;DHT22;52411;52.716;6.696;2024-01-11T11:17:58;0.30;99.90
65692;DHT22;52411;52.716;6.696;2024-01-11T11:20:24;0.30;99.90
65692;DHT22;52411;52.716;6.696;2024-01-11T11:23:06;0.40;99.90
65692;DHT22;52411;52.716;6.696;2024-01-11T11:25:32;0.40;99.90
65692;DHT22;52411;52.716;6.696;2024-01-11T11:27:59;0.40;99.90
65692;DHT22;52411;52.716;6.696;2024-01-11T11:30:30;0.40;99.90
65692;DHT22;52411;52.716;6.696;2024-01-11T11:32:56;0.50;99.90
65692;DHT22;52411;52.716;6.696;2024-01-11T11:35:25;0.50;99.90
65692;DHT22;52411;52.716;6.696;2024-01-11T11:37:57;0.60;99.90
65692;DHT22;52411;52.716;6.696;2024-01-11T11:40:38;0.60;99.90
65692;DHT22;52411;52.716;6.696;2024-01-11T11:43:10;0.70;99.90
65692;DHT22;52411;52.716;6.696;2024-01-11T11:45:37;0.70;99.90
65692;DHT22;52411;52.716;6.696;2024-01-11T11:51:10;0.70;99.90
65692;DHT22;52411;52.716;6.696;2024-01-11T11:53:37;0.80;99.90
65692;DHT22;52411;52.716;6.696;2024-01-11T11:56:04;0.80;99.90
65692;DHT22;52411;52.716;6.696;2024-01-11T11:58:31;0.80;99.90
65692;DHT22;52411;52.716;6.696;2024-01-11T12:00:58;0.80;99.90
65692;DHT22;52411;52.716;6.696;2024-01-11T12:06:03;0.90;99.90
65692;DHT22;52411;52.716;6.696;2024-01-11T12:08:29;1.00;99.90
65692;DHT22;52411;52.716;6.696;2024-01-11T12:10:55;1.00;99.90
65692;DHT22;52411;52.716;6.696;2024-01-11T12:13:20;0.90;99.90
65692;DHT22;52411;52.716;6.696;2024-01-11T12:26:54;1.10;99.90
65692;DHT22;52411;52.716;6.696;2024-01-11T12:29:20;1.10;99.90
65692;DHT22;52411;52.716;6.696;2024-01-11T12:31:47;1.10;99.90
65692;DHT22;52411;52.716;6.696;2024-01-11T12:34:13;1.10;99.90
65692;DHT22;52411;52.716;6.696;2024-01-11T12:36:39;1.10;99.90
65692;DHT22;52411;52.716;6.696;2024-01-11T12:39:05;1.00;99.90
65692;DHT22;52411;52.716;6.696;2024-01-11T12:41:32;1.10;99.90
65692;DHT22;52411;52.716;6.696;2024-01-11T12:43:58;1.00;99.90
65692;DHT22;52411;52.716;6.696;2024-01-11T12:46:24;1.00;99.90
65692;DHT22;52411;52.716;6.696;2024-01-11T12:48:50;1.00;99.90
65692;DHT22;52411;52.716;6.696;2024-01-11T12:51:16;1.00;99.90
65692;DHT22;52411;52.716;6.696;2024-01-11T12:53:47;1.00;99.90
65692;DHT22;52411;52.716;6.696;2024-01-11T12:59:54;1.10;99.90
65692;DHT22;52411;52.716;6.696;2024-01-11T13:02:34;1.10;99.90
65692;DHT22;52411;52.716;6.696;2024-01-11T13:05:00;1.10;99.90
65692;DHT22;52411;52.716;6.696;2024-01-11T13:07:27;1.20;99.90
65692;DHT22;52411;52.716;6.696;2024-01-11T13:09:53;1.20;99.90
65692;DHT22;52411;52.716;6.696;2024-01-11T13:12:19;1.20;99.90
65692;DHT22;52411;52.716;6.696;2024-01-11T13:14:46;1.20;99.90
65692;DHT22;52411;52.716;6.696;2024-01-11T13:20:53;1.20;99.90
65692;DHT22;52411;52.716;6.696;2024-01-11T13:23:19;1.30;99.90
65692;DHT22;52411;52.716;6.696;2024-01-11T13:25:47;1.30;99.90
65692;DHT22;52411;52.716;6.696;2024-01-11T13:28:13;1.20;99.90
65692;DHT22;52411;52.716;6.696;2024-01-11T13:30:42;1.20;99.90
65692;DHT22;52411;52.716;6.696;2024-01-11T13:35:38;1.30;99.90
65692;DHT22;52411;52.716;6.696;2024-01-11T13:38:04;1.30;99.90
65692;DHT22;52411;52.716;6.696;2024-01-11T13:40:31;1.30;99.90
65692;DHT22;52411;52.716;6.696;2024-01-11T13:42:56;1.30;99.90
65692;DHT22;52411;52.716;6.696;2024-01-11T13:45:23;1.30;99.90
65692;DHT22;52411;52.716;6.696;2024-01-11T13:47:48;1.30;99.90
65692;DHT22;52411;52.716;6.696;2024-01-11T13:50:14;1.30;99.90
65692;DHT22;52411;52.716;6.696;2024-01-11T13:52:40;1.30;99.90
65692;DHT22;52411;52.716;6.696;2024-01-11T13:55:07;1.20;99.90
65692;DHT22;52411;52.716;6.696;2024-01-11T13:57:36;1.20;99.90
65692;DHT22;52411;52.716;6.696;2024-01-11T14:00:03;1.20;99.90
65692;DHT22;52411;52.716;6.696;2024-01-11T14:02:28;1.20;99.90
65692;DHT22;52411;52.716;6.696;2024-01-11T14:04:54;1.20;99.90
65692;DHT22;52411;52.716;6.696;2024-01-11T14:07:19;1.20;99.90
65692;DHT22;52411;52.716;6.696;2024-01-11T14:09:45;1.20;99.90
65692;DHT22;52411;52.716;6.696;2024-01-11T14:12:11;1.20;99.90
65692;DHT22;52411;52.716;6.696;2024-01-11T14:14:37;1.10;99.90
65692;DHT22;52411;52.716;6.696;2024-01-11T14:17:03;1.10;99.90
65692;DHT22;52411;52.716;6.696;2024-01-11T14:19:28;1.10;99.90
65692;DHT22;52411;52.716;6.696;2024-01-11T14:21:54;1.10;99.90
65692;DHT22;52411;52.716;6.696;2024-01-11T14:24:19;1.10;99.90
65692;DHT22;52411;52.716;6.696;2024-01-11T14:26:45;1.10;99.90
65692;DHT22;52411;52.716;6.696;2024-01-11T14:29:10;1.10;99.90
65692;DHT22;52411;52.716;6.696;2024-01-11T14:31:36;1.20;99.90
65692;DHT22;52411;52.716;6.696;2024-01-11T14:34:03;1.10;99.90
65692;DHT22;52411;52.716;6.696;2024-01-11T14:36:28;1.10;99.90
65692;DHT22;52411;52.716;6.696;2024-01-11T14:38:55;1.20;99.90
65692;DHT22;52411;52.716;6.696;2024-01-11T14:41:20;1.10;99.90
65692;DHT22;52411;52.716;6.696;2024-01-11T14:43:46;1.20;99.90
65692;DHT22;52411;52.716;6.696;2024-01-11T14:46:12;1.20;99.90
65692;DHT22;52411;52.716;6.696;2024-01-11T14:48:38;1.20;99.90
65692;DHT22;52411;52.716;6.696;2024-01-11T14:51:04;1.20;99.90
65692;DHT22;52411;52.716;6.696;2024-01-11T14:53:33;1.20;99.90
65692;DHT22;52411;52.716;6.696;2024-01-11T14:55:59;1.20;99.90
65692;DHT22;52411;52.716;6.696;2024-01-11T14:58:24;1.20;99.90
65692;DHT22;52411;52.716;6.696;2024-01-11T15:00:50;1.10;99.90
65692;DHT22;52411;52.716;6.696;2024-01-11T15:03:17;1.20;99.90
65692;DHT22;52411;52.716;6.696;2024-01-11T15:05:44;1.10;99.90
65692;DHT22;52411;52.716;6.696;2024-01-11T15:08:09;1.10;99.90
65692;DHT22;52411;52.716;6.696;2024-01-11T15:10:35;1.10;99.90
65692;DHT22;52411;52.716;6.696;2024-01-11T15:13:00;1.10;99.90
65692;DHT22;52411;52.716;6.696;2024-01-11T15:15:26;1.10;99.90
65692;DHT22;52411;52.716;6.696;2024-01-11T15:17:51;1.00;99.90
65692;DHT22;52411;52.716;6.696;2024-01-11T15:20:18;1.10;99.90
65692;DHT22;52411;52.716;6.696;2024-01-11T15:22:43;1.10;99.90
65692;DHT22;52411;52.716;6.696;2024-01-11T15:25:09;1.00;99.90
65692;DHT22;52411;52.716;6.696;2024-01-11T15:27:34;1.10;99.90
65692;DHT22;52411;52.716;6.696;2024-01-11T15:30:00;1.00;99.90
65692;DHT22;52411;52.716;6.696;2024-01-11T15:32:26;1.00;99.90
65692;DHT22;52411;52.716;6.696;2024-01-11T15:34:52;1.00;99.90
65692;DHT22;52411;52.716;6.696;2024-01-11T15:37:18;1.00;99.90
65692;DHT22;52411;52.716;6.696;2024-01-11T15:39:45;1.00;99.90
65692;DHT22;52411;52.716;6.696;2024-01-11T15:42:12;1.00;99.90
65692;DHT22;52411;52.716;6.696;2024-01-11T15:44:37;1.00;99.90
65692;DHT22;52411;52.716;6.696;2024-01-11T15:47:05;1.00;99.90
65692;DHT22;52411;52.716;6.696;2024-01-11T15:49:30;1.00;99.90
65692;DHT22;52411;52.716;6.696;2024-01-11T15:51:56;1.00;99.90
65692;DHT22;52411;52.716;6.696;2024-01-11T15:54:22;1.10;99.90
65692;DHT22;52411;52.716;6.696;2024-01-11T15:56:48;1.10;99.90
65692;DHT22;52411;52.716;6.696;2024-01-11T15:59:13;1.00;99.90